createdAt,value
2022-09-01T03:17:37.321Z,8.30
2022-09-01T03:20:52.962Z,9.40
2022-09-01T03:24:03.577Z,9.97
2022-09-01T03:27:13.352Z,9.90
2022-09-01T03:30:23.798Z,9.27
2022-09-01T03:33:36.442Z,8.47
2022-09-01T03:36:50.141Z,8.70
2022-09-01T03:40:09.901Z,10.07
2022-09-01T03:43:23.391Z,10.57
2022-09-01T03:46:36.814Z,7.50
2022-09-01T03:49:50.148Z,9.00
2022-09-01T03:53:01.214Z,8.57
2022-09-01T03:56:11.355Z,9.40
2022-09-01T03:59:22.457Z,8.90
2022-09-01T04:02:32.140Z,7.73
2022-09-01T04:05:46.014Z,7.63
2022-09-01T04:09:02.438Z,7.63
2022-09-01T04:12:15.939Z,7.83
2022-09-01T04:15:28.809Z,9.10
2022-09-01T04:18:39.918Z,9.20
2022-09-01T04:21:53.814Z,7.90
2022-09-01T04:25:03.882Z,7.30
2022-09-01T04:28:22.891Z,5.97
2022-09-01T04:31:32.910Z,7.93
2022-09-01T04:34:42.610Z,8.73
2022-09-01T04:37:55.625Z,8.60
2022-09-01T04:41:06.409Z,7.93
2022-09-01T04:44:16.748Z,7.47
2022-09-01T04:47:35.793Z,6.97
2022-09-01T04:50:49.399Z,8.13
2022-09-01T04:54:14.291Z,7.00
2022-09-01T04:57:29.174Z,5.80
2022-09-01T06:01:24.538Z,5.90
2022-09-01T06:04:35.529Z,7.13
2022-09-01T06:07:47.266Z,6.20
2022-09-01T06:10:56.984Z,6.40
2022-09-01T06:14:11.056Z,6.50
2022-09-01T06:17:24.573Z,6.33
2022-09-01T06:20:35.104Z,6.43
2022-09-01T06:23:45.988Z,5.63
2022-09-01T06:26:56.028Z,7.90
2022-09-01T06:30:15.384Z,5.53
2022-09-01T06:33:36.023Z,5.37
2022-09-01T06:36:48.349Z,5.30
2022-09-01T06:39:58.609Z,5.23
2022-09-01T06:43:09.703Z,4.50
2022-09-01T06:46:24.110Z,5.73
2022-09-01T06:49:36.486Z,5.13
2022-09-01T06:56:34.012Z,5.27
2022-09-01T06:59:53.721Z,5.27
2022-09-01T07:03:09.335Z,5.00
2022-09-01T07:10:22.874Z,3.80
2022-09-01T07:14:15.378Z,4.37
2022-09-01T07:17:27.130Z,3.60
2022-09-01T07:21:02.783Z,3.83
2022-09-01T07:24:11.706Z,3.10
2022-09-01T07:27:35.646Z,2.83
2022-09-01T07:30:50.818Z,3.10
2022-09-01T07:44:52.886Z,2.90
2022-09-01T07:49:01.323Z,3.00
2022-09-01T07:51:51.919Z,3.03
2022-09-01T07:55:03.250Z,2.90
2022-09-01T07:58:15.413Z,2.73
2022-09-01T08:01:29.327Z,3.00
2022-09-01T08:04:39.964Z,2.53
2022-09-01T08:07:51.819Z,2.90
2022-09-01T08:11:05.874Z,2.73
2022-09-01T08:14:18.764Z,2.70
2022-09-01T08:17:50.874Z,3.17
2022-09-01T08:20:58.959Z,2.77
2022-09-01T08:24:20.144Z,2.90
2022-09-01T08:27:30.095Z,3.00
2022-09-01T08:30:52.323Z,3.00
2022-09-01T08:34:05.352Z,3.13
2022-09-01T08:37:15.848Z,3.07
2022-09-01T08:40:27.501Z,2.97
2022-09-01T08:43:51.524Z,2.60
2022-09-01T08:47:06.845Z,2.90
2022-09-01T08:50:17.237Z,3.00
2022-09-01T08:53:53.956Z,2.80
2022-09-01T08:57:11.685Z,3.17
2022-09-01T09:00:50.536Z,3.30
2022-09-01T09:04:16.852Z,2.87
2022-09-01T09:07:38.126Z,2.90
2022-09-01T09:10:56.536Z,3.83
2022-09-01T09:14:15.839Z,3.90
2022-09-01T09:17:33.810Z,3.77
2022-09-01T09:20:46.092Z,3.40
2022-09-01T09:24:00.351Z,3.60
2022-09-01T09:27:11.169Z,3.53
2022-09-01T09:30:26.559Z,3.40
2022-09-01T09:33:51.704Z,3.30
2022-09-01T09:37:20.391Z,3.73
2022-09-01T09:40:30.062Z,3.93
2022-09-01T09:43:48.283Z,3.40
2022-09-01T09:46:58.493Z,3.80
2022-09-01T09:50:17.488Z,3.60
2022-09-01T09:53:32.436Z,3.70
2022-09-01T09:56:45.317Z,3.67
2022-09-01T10:00:01.744Z,3.90
2022-09-01T10:03:15.030Z,3.20
2022-09-01T10:06:34.491Z,4.40
2022-09-01T10:09:45.474Z,3.80
2022-09-01T10:12:56.898Z,3.67
2022-09-01T10:16:11.308Z,3.60
2022-09-01T10:19:22.038Z,3.70
2022-09-01T10:22:33.677Z,3.30
2022-09-01T10:25:47.630Z,3.83
2022-09-01T10:29:01.859Z,4.10
2022-09-01T10:32:34.640Z,3.60
2022-09-01T10:35:48.980Z,3.20
2022-09-01T10:39:04.953Z,4.20
2022-09-01T10:42:21.132Z,3.57
2022-09-01T10:45:35.349Z,4.00
2022-09-01T10:48:51.803Z,3.73
2022-09-01T10:52:12.980Z,4.27
2022-09-01T10:55:27.755Z,3.60
2022-09-01T11:02:26.775Z,3.50
2022-09-01T11:06:12.040Z,3.30
2022-09-01T11:09:27.051Z,3.63
2022-09-01T11:12:49.905Z,3.30
2022-09-01T11:16:49.106Z,3.23
2022-09-01T11:20:06.302Z,3.50
2022-09-01T11:23:24.220Z,3.50
2022-09-01T12:57:30.307Z,2.70
2022-09-01T13:00:58.432Z,2.53
2022-09-01T13:04:14.275Z,2.60
2022-09-01T13:07:24.277Z,2.53
2022-09-01T13:10:37.956Z,2.60
2022-09-01T13:13:48.938Z,2.30
2022-09-01T13:16:58.612Z,2.20
2022-09-01T13:20:09.273Z,2.50
2022-09-01T13:23:20.212Z,2.20
2022-09-01T13:26:31.365Z,2.07
2022-09-01T13:29:42.480Z,2.40
2022-09-01T13:39:51.764Z,2.17
2022-09-01T13:43:04.563Z,2.33
2022-09-01T13:46:15.670Z,2.13
2022-09-01T13:52:57.497Z,2.17
2022-09-01T13:56:07.529Z,2.30
2022-09-01T13:59:17.293Z,2.20
2022-09-01T14:02:28.240Z,2.10
2022-09-01T14:05:43.271Z,2.50
2022-09-01T14:08:52.870Z,2.00
2022-09-01T14:12:02.675Z,2.10
2022-09-01T14:15:16.689Z,2.17
2022-09-01T14:18:32.811Z,2.00
2022-09-01T14:21:42.590Z,2.10
2022-09-01T14:24:53.319Z,2.40
2022-09-01T14:28:03.842Z,2.47
2022-09-01T14:31:15.159Z,2.37
2022-09-01T14:34:26.253Z,2.03
2022-09-01T14:37:38.679Z,2.30
2022-09-01T14:40:51.920Z,2.27
2022-09-01T14:44:03.619Z,2.43
2022-09-01T14:47:19.770Z,2.27
2022-09-01T14:50:33.924Z,2.30
2022-09-01T14:53:44.154Z,2.07
2022-09-01T15:00:25.171Z,2.00
2022-09-01T15:03:35.147Z,1.70
2022-09-01T15:06:46.121Z,2.27
2022-09-01T15:09:57.921Z,2.17
2022-09-01T15:13:07.830Z,2.00
2022-09-01T15:16:19.658Z,2.20
2022-09-01T15:19:30.244Z,2.20
2022-09-01T15:22:41.876Z,2.07
2022-09-01T15:25:53.653Z,2.13
2022-09-01T15:29:03.419Z,2.03
2022-09-01T15:32:20.533Z,2.30
2022-09-01T15:35:38.835Z,2.70
2022-09-01T15:38:50.762Z,2.20
2022-09-01T15:42:01.863Z,2.30
2022-09-01T15:45:14.789Z,2.00
2022-09-01T15:48:24.848Z,2.07
2022-09-01T15:51:36.696Z,2.43
2022-09-01T15:54:48.336Z,2.13
2022-09-01T15:58:00.110Z,2.20
2022-09-01T16:01:10.145Z,2.10
2022-09-01T16:04:25.556Z,1.90
2022-09-01T16:07:37.506Z,2.23
2022-09-01T16:10:48.334Z,2.17
2022-09-01T16:13:58.507Z,2.30
2022-09-01T16:17:18.211Z,2.13
2022-09-01T16:20:32.528Z,2.27
2022-09-01T16:23:45.430Z,2.20
2022-09-01T16:26:57.172Z,2.00
2022-09-01T16:30:08.945Z,2.07
2022-09-01T16:33:20.950Z,2.33
2022-09-01T16:36:38.517Z,2.10
2022-09-01T16:39:53.809Z,2.27
2022-09-01T16:43:11.326Z,2.20
2022-09-01T16:46:30.419Z,2.10
2022-09-01T16:49:47.117Z,1.90
2022-09-01T16:53:09.195Z,2.07
2022-09-01T16:56:26.321Z,2.13
2022-09-01T16:59:50.687Z,2.20
2022-09-01T17:03:08.961Z,2.00
2022-09-01T17:06:32.078Z,1.80
2022-09-01T17:09:44.203Z,2.17
2022-09-01T17:12:57.261Z,2.13
2022-09-01T17:16:12.628Z,1.90
2022-09-01T17:19:23.525Z,2.10
2022-09-01T17:22:37.433Z,2.03
2022-09-01T17:25:58.839Z,2.13
2022-09-01T17:29:23.439Z,1.90
2022-09-01T17:32:50.147Z,1.80
2022-09-01T17:36:14.078Z,2.00
2022-09-01T17:39:39.028Z,1.80
2022-09-01T17:42:58.070Z,2.07
2022-09-01T17:46:14.662Z,2.20
2022-09-01T17:49:31.176Z,1.93
2022-09-01T17:52:53.217Z,2.27
2022-09-01T17:56:14.270Z,2.10
2022-09-01T17:59:31.872Z,2.10
2022-09-01T18:02:58.806Z,2.43
2022-09-01T18:06:14.417Z,2.10
2022-09-01T18:09:27.653Z,2.00
2022-09-01T18:12:40.339Z,2.20
2022-09-01T18:15:54.442Z,2.50
2022-09-01T18:19:17.867Z,2.13
2022-09-01T18:22:36.958Z,2.10
2022-09-01T18:25:52.248Z,2.57
2022-09-01T18:29:03.484Z,2.50
2022-09-01T18:32:22.020Z,2.40
2022-09-01T18:35:42.366Z,2.40
2022-09-01T18:38:58.491Z,2.53
2022-09-01T18:42:18.957Z,2.63
2022-09-01T18:45:39.563Z,2.63
2022-09-01T18:49:01.020Z,3.03
2022-09-01T18:52:27.177Z,2.37
2022-09-01T18:55:48.789Z,2.40
2022-09-01T18:59:10.419Z,2.53
2022-09-01T19:02:37.486Z,2.90
2022-09-01T19:06:00.847Z,2.60
2022-09-01T19:09:17.363Z,2.60
2022-09-01T19:12:39.483Z,2.70
2022-09-01T19:15:59.610Z,2.53
2022-09-01T19:19:23.824Z,2.90
2022-09-01T19:22:41.964Z,3.10
2022-09-01T19:25:59.110Z,2.87
2022-09-01T19:29:17.528Z,3.07
2022-09-01T19:32:31.165Z,3.00
2022-09-01T19:35:46.822Z,3.10
2022-09-01T19:38:59.608Z,3.40
2022-09-01T19:42:17.268Z,3.20
2022-09-01T19:45:39.974Z,3.30
2022-09-01T19:48:58.554Z,3.40
2022-09-01T19:52:14.628Z,3.90
2022-09-01T19:55:31.486Z,3.90
2022-09-01T19:58:51.583Z,4.00
2022-09-01T20:02:10.380Z,3.50
2022-09-01T20:05:31.153Z,3.70
2022-09-01T20:08:44.978Z,3.67
2022-09-01T20:12:02.050Z,3.10
2022-09-01T20:15:18.450Z,3.07
